createdAt,value
2022-11-14T00:01:12.541Z,10.60
2022-11-14T00:03:39.308Z,10.60
2022-11-14T00:06:07.166Z,10.60
2022-11-14T00:08:34.096Z,10.70
2022-11-14T00:11:00.691Z,10.70
2022-11-14T00:13:27.290Z,10.60
2022-11-14T00:15:54.397Z,10.70
2022-11-14T00:18:21.862Z,10.70
2022-11-14T00:20:52.751Z,10.60
2022-11-14T00:23:21.321Z,10.60
2022-11-14T00:25:48.744Z,10.50
2022-11-14T00:28:15.330Z,10.50
2022-11-14T00:30:42.253Z,10.50
2022-11-14T00:33:08.885Z,10.40
2022-11-14T00:35:35.516Z,10.30
2022-11-14T00:38:02.134Z,10.30
2022-11-14T00:40:28.768Z,10.30
2022-11-14T00:42:55.367Z,10.30
2022-11-14T00:45:22.127Z,10.20
2022-11-14T00:47:48.782Z,10.20
2022-11-14T00:50:17.127Z,10.10
2022-11-14T00:52:44.045Z,10.20
2022-11-14T00:55:10.707Z,10.30
2022-11-14T00:57:37.312Z,10.20
2022-11-14T01:00:05.811Z,10.20
2022-11-14T01:02:32.485Z,10.20
2022-11-14T01:04:59.116Z,10.20
2022-11-14T01:07:25.741Z,10.10
2022-11-14T01:09:52.355Z,10.10
2022-11-14T01:12:19.060Z,10.00
2022-11-14T01:14:45.726Z,10.00
2022-11-14T01:17:12.440Z,10.10
2022-11-14T01:19:39.161Z,10.20
2022-11-14T01:22:06.604Z,10.20
2022-11-14T01:24:34.234Z,10.20
2022-11-14T01:27:01.583Z,10.20
2022-11-14T01:29:28.515Z,10.20
2022-11-14T01:31:55.314Z,10.20
2022-11-14T01:34:22.409Z,10.20
2022-11-14T01:36:49.133Z,10.20
2022-11-14T01:39:15.988Z,10.10
2022-11-14T01:41:42.692Z,10.20
2022-11-14T01:44:41.263Z,10.20
2022-11-14T01:47:08.019Z,10.20
2022-11-14T01:49:39.094Z,10.30
2022-11-14T01:52:20.237Z,10.20
2022-11-14T01:54:50.179Z,10.20
2022-11-14T01:57:27.445Z,10.00
2022-11-14T01:59:57.476Z,10.00
2022-11-14T02:02:26.247Z,10.10
2022-11-14T02:05:01.073Z,10.00
2022-11-14T02:07:30.050Z,9.90
2022-11-14T02:09:59.693Z,10.00
2022-11-14T02:12:26.338Z,9.90
2022-11-14T02:14:56.325Z,9.90
2022-11-14T02:17:31.669Z,9.90
2022-11-14T02:20:11.136Z,9.90
2022-11-14T02:22:40.437Z,9.80
2022-11-14T02:25:08.988Z,9.90
2022-11-14T02:27:37.653Z,9.80
2022-11-14T02:30:10.565Z,9.90
2022-11-14T02:33:04.356Z,10.00
2022-11-14T02:35:24.020Z,10.00
2022-11-14T02:37:50.737Z,10.00
2022-11-14T02:40:17.559Z,10.00
2022-11-14T02:42:44.309Z,10.00
2022-11-14T02:45:12.401Z,10.00
2022-11-14T02:47:38.999Z,10.00
2022-11-14T02:50:05.943Z,10.00
2022-11-14T02:52:32.599Z,10.00
2022-11-14T02:54:59.243Z,10.10
2022-11-14T02:57:25.841Z,9.90
2022-11-14T02:59:52.522Z,10.00
2022-11-14T03:02:19.138Z,9.90
2022-11-14T03:04:45.715Z,10.00
2022-11-14T03:07:12.648Z,9.90
2022-11-14T03:09:39.341Z,9.90
2022-11-14T03:12:06.329Z,9.90
2022-11-14T03:14:32.984Z,9.90
2022-11-14T03:16:59.840Z,9.80
2022-11-14T03:19:26.432Z,9.80
2022-11-14T03:21:53.181Z,9.90
2022-11-14T03:24:19.852Z,9.90
2022-11-14T03:26:46.479Z,10.00
2022-11-14T03:29:13.143Z,9.90
2022-11-14T03:31:39.777Z,9.80
2022-11-14T03:34:06.384Z,9.80
2022-11-14T03:36:34.469Z,9.80
2022-11-14T03:39:01.369Z,9.90
2022-11-14T03:41:27.977Z,9.90
2022-11-14T03:43:54.569Z,9.90
2022-11-14T03:46:21.329Z,9.90
2022-11-14T03:48:48.274Z,9.80
2022-11-14T03:51:15.991Z,9.80
2022-11-14T03:53:42.590Z,9.80
2022-11-14T03:56:09.276Z,9.70
2022-11-14T03:58:35.889Z,9.60
2022-11-14T04:01:03.817Z,9.60
2022-11-14T04:03:30.525Z,9.70
2022-11-14T04:05:57.145Z,10.00
2022-11-14T04:08:23.857Z,9.80
2022-11-14T04:10:50.548Z,9.70
2022-11-14T04:13:17.200Z,9.80
2022-11-14T04:15:43.808Z,9.80
2022-11-14T04:18:10.437Z,9.80
2022-11-14T04:20:37.119Z,9.80
2022-11-14T04:23:03.863Z,9.90
2022-11-14T04:25:30.502Z,9.70
2022-11-14T04:27:57.118Z,9.80
2022-11-14T04:30:23.721Z,9.70
2022-11-14T04:32:50.350Z,9.70
2022-11-14T04:35:16.960Z,9.70
2022-11-14T04:37:43.594Z,9.70
2022-11-14T04:40:10.541Z,9.60
2022-11-14T04:42:37.173Z,9.60
2022-11-14T04:45:04.242Z,9.50
2022-11-14T04:47:30.924Z,9.50
2022-11-14T04:49:57.512Z,9.50
2022-11-14T04:52:24.169Z,9.60
2022-11-14T04:54:50.747Z,9.60
2022-11-14T04:57:17.873Z,9.60
2022-11-14T04:59:44.621Z,9.50
2022-11-14T05:02:11.267Z,9.50
2022-11-14T05:04:37.856Z,9.50
2022-11-14T05:07:04.585Z,9.60
2022-11-14T05:09:31.302Z,9.60
2022-11-14T05:11:57.920Z,9.70
2022-11-14T05:14:24.616Z,9.60
2022-11-14T05:16:51.233Z,9.70
2022-11-14T05:19:17.854Z,9.60
2022-11-14T05:21:44.482Z,9.50
2022-11-14T05:24:11.143Z,9.60
2022-11-14T05:26:38.026Z,9.60
2022-11-14T05:29:04.658Z,9.60
2022-11-14T05:31:31.278Z,9.70
2022-11-14T05:33:57.890Z,9.70
2022-11-14T05:36:24.569Z,9.70
2022-11-14T05:38:51.284Z,9.70
2022-11-14T05:41:20.120Z,9.60
2022-11-14T05:43:47.301Z,9.70
2022-11-14T05:46:16.211Z,9.70
2022-11-14T05:48:43.100Z,9.60
2022-11-14T05:51:13.671Z,9.60
2022-11-14T05:53:41.160Z,9.60
2022-11-14T05:56:11.649Z,9.60
2022-11-14T05:58:38.982Z,9.70
2022-11-14T06:01:19.257Z,9.50
2022-11-14T06:03:48.000Z,9.60
2022-11-14T06:06:18.354Z,9.60
2022-11-14T06:08:45.635Z,9.60
2022-11-14T06:11:15.909Z,9.60
2022-11-14T06:13:43.185Z,9.60
2022-11-14T06:16:17.819Z,9.60
2022-11-14T06:18:45.778Z,9.50
2022-11-14T06:21:13.751Z,9.50
2022-11-14T06:23:40.595Z,9.50
2022-11-14T06:26:14.218Z,9.60
2022-11-14T06:28:40.860Z,9.60
2022-11-14T06:31:07.529Z,9.60
2022-11-14T06:33:36.067Z,9.60
2022-11-14T06:36:05.066Z,9.60
2022-11-14T06:38:33.188Z,9.50
2022-11-14T06:41:26.170Z,9.50
2022-11-14T06:43:54.175Z,9.60
2022-11-14T06:46:22.403Z,9.60
2022-11-14T06:48:50.314Z,9.60
2022-11-14T06:51:17.431Z,9.50
2022-11-14T06:53:44.623Z,9.50
2022-11-14T06:56:13.558Z,10.90
2022-11-14T06:58:43.416Z,11.90
2022-11-14T07:01:18.835Z,11.50
2022-11-14T07:03:45.862Z,10.90
2022-11-14T07:06:18.360Z,10.50
2022-11-14T07:08:45.099Z,10.10
2022-11-14T07:11:22.759Z,9.90
2022-11-14T07:13:55.136Z,9.80
2022-11-14T07:16:25.419Z,9.40
2022-11-14T07:18:52.016Z,9.50
2022-11-14T07:21:18.597Z,9.50
2022-11-14T07:23:45.196Z,9.50
2022-11-14T07:26:12.350Z,9.60
2022-11-14T07:28:45.154Z,9.70
2022-11-14T07:31:16.773Z,9.60
2022-11-14T07:33:44.445Z,9.50
2022-11-14T07:36:12.588Z,9.60
2022-11-14T07:38:39.878Z,9.50
2022-11-14T07:41:12.450Z,9.60
2022-11-14T07:43:39.890Z,9.60
2022-11-14T07:46:12.083Z,9.40
2022-11-14T07:48:39.072Z,9.40
2022-11-14T07:51:09.869Z,9.40
2022-11-14T07:53:36.495Z,9.40
2022-11-14T07:56:06.105Z,9.50
2022-11-14T07:58:35.802Z,9.40
2022-11-14T08:01:03.977Z,9.40
2022-11-14T08:03:31.585Z,9.40
2022-11-14T08:06:07.065Z,9.40
2022-11-14T08:08:34.320Z,9.40
2022-11-14T08:11:01.616Z,9.40
2022-11-14T08:13:33.583Z,9.40
2022-11-14T08:16:10.733Z,9.40
2022-11-14T08:18:39.279Z,9.50
2022-11-14T08:21:06.060Z,9.40
2022-11-14T08:23:32.895Z,9.30
2022-11-14T08:25:59.891Z,9.40
2022-11-14T08:28:26.840Z,9.50
2022-11-14T08:30:58.400Z,9.50
2022-11-14T08:33:25.021Z,9.50
2022-11-14T08:35:51.610Z,9.50
2022-11-14T08:38:18.220Z,9.50
2022-11-14T08:40:44.861Z,9.40
2022-11-14T08:43:11.692Z,9.50
2022-11-14T08:45:38.306Z,9.40
2022-11-14T08:48:05.762Z,9.50
2022-11-14T08:50:32.425Z,9.50
2022-11-14T08:52:59.026Z,9.50
2022-11-14T08:55:25.654Z,9.50
2022-11-14T08:57:53.808Z,9.40
2022-11-14T09:00:20.872Z,9.50
2022-11-14T09:02:47.654Z,9.50
2022-11-14T09:05:14.443Z,9.50
2022-11-14T09:07:41.037Z,9.30
2022-11-14T09:10:08.353Z,9.30
2022-11-14T09:12:35.495Z,9.30
2022-11-14T09:15:02.077Z,9.40
2022-11-14T09:17:28.789Z,9.30
2022-11-14T09:19:55.864Z,9.30
2022-11-14T09:22:22.503Z,9.40
2022-11-14T09:24:49.515Z,9.40
2022-11-14T09:27:17.120Z,9.50
2022-11-14T09:29:44.217Z,9.50
2022-11-14T09:32:10.835Z,9.60
2022-11-14T09:34:37.616Z,9.50
2022-11-14T09:37:04.247Z,9.50
2022-11-14T09:39:30.880Z,9.50
2022-11-14T09:42:14.335Z,9.60
2022-11-14T09:44:58.728Z,9.50
2022-11-14T09:47:52.845Z,9.50
2022-11-14T09:50:26.345Z,9.50
2022-11-14T09:52:56.976Z,9.50
2022-11-14T09:55:33.591Z,9.70
2022-11-14T09:58:04.117Z,9.60
2022-11-14T10:00:44.138Z,9.60
2022-11-14T10:03:39.165Z,9.70
2022-11-14T10:06:18.876Z,9.70
2022-11-14T10:08:49.732Z,9.70
2022-11-14T10:11:23.886Z,9.70
2022-11-14T10:14:12.018Z,9.70
2022-11-14T10:16:44.655Z,9.70
2022-11-14T10:19:27.060Z,9.70
2022-11-14T10:22:14.454Z,9.70
2022-11-14T10:25:22.331Z,9.80
2022-11-14T10:28:09.526Z,9.90
2022-11-14T10:30:47.254Z,9.90
2022-11-14T10:33:42.066Z,9.90
2022-11-14T10:36:41.302Z,9.90
2022-11-14T10:39:29.509Z,9.90
2022-11-14T10:42:07.372Z,9.90
2022-11-14T10:44:40.989Z,9.80
2022-11-14T10:47:15.594Z,9.90
2022-11-14T10:49:43.365Z,9.90
2022-11-14T10:52:16.534Z,10.00
2022-11-14T10:55:00.000Z,10.00
2022-11-14T10:57:28.688Z,10.00
2022-11-14T10:59:55.641Z,10.10
2022-11-14T11:02:22.831Z,10.20
2022-11-14T11:04:49.498Z,10.20
2022-11-14T11:07:43.752Z,10.20
2022-11-14T11:10:42.621Z,10.30
2022-11-14T11:13:15.562Z,10.30
2022-11-14T11:15:42.797Z,10.40
2022-11-14T11:18:31.428Z,10.50
2022-11-14T11:21:04.717Z,10.50
2022-11-14T11:23:31.703Z,10.60
2022-11-14T11:26:05.663Z,10.70
2022-11-14T11:28:34.468Z,10.70
2022-11-14T11:31:11.330Z,10.70
2022-11-14T11:33:39.570Z,10.70
2022-11-14T11:36:13.920Z,10.80
2022-11-14T11:38:41.906Z,10.80
2022-11-14T11:42:07.285Z,10.70
2022-11-14T11:44:18.008Z,10.70
2022-11-14T11:46:53.703Z,10.60
2022-11-14T11:49:54.288Z,10.60
2022-11-14T11:52:31.011Z,10.90
2022-11-14T11:55:09.678Z,11.30
2022-11-14T11:57:42.699Z,11.50
2022-11-14T12:00:19.087Z,11.80
2022-11-14T12:02:50.005Z,11.80
2022-11-14T12:05:25.568Z,11.80
2022-11-14T12:07:52.104Z,11.70
2022-11-14T12:10:29.937Z,11.60
2022-11-14T12:13:08.484Z,11.40
2022-11-14T12:15:57.395Z,11.30
2022-11-14T12:18:29.309Z,11.30
2022-11-14T12:21:12.572Z,11.20
2022-11-14T12:23:52.401Z,11.20
2022-11-14T12:26:33.884Z,11.10
2022-11-14T12:29:00.447Z,11.20
2022-11-14T12:31:34.490Z,11.20
2022-11-14T12:34:22.272Z,11.10
2022-11-14T12:36:49.010Z,11.10
2022-11-14T12:39:25.574Z,11.10
2022-11-14T12:42:04.536Z,11.20
2022-11-14T12:44:34.217Z,11.10
2022-11-14T12:47:07.221Z,11.10
2022-11-14T12:49:52.589Z,11.00
2022-11-14T12:52:40.983Z,11.10
2022-11-14T12:55:25.738Z,11.20
2022-11-14T12:58:09.608Z,11.20
2022-11-14T13:01:01.045Z,11.30
2022-11-14T13:03:57.151Z,11.30
2022-11-14T13:06:25.934Z,11.30
2022-11-14T13:09:43.893Z,11.20
2022-11-14T13:12:48.515Z,11.20
2022-11-14T13:15:55.215Z,11.20
2022-11-14T13:18:43.684Z,11.20
2022-11-14T13:21:46.403Z,11.20
2022-11-14T13:24:18.032Z,11.20
2022-11-14T13:26:44.610Z,11.20
2022-11-14T13:29:47.368Z,11.20
2022-11-14T13:32:44.434Z,11.20
2022-11-14T13:35:18.467Z,11.30
2022-11-14T13:38:05.660Z,11.30
2022-11-14T13:41:07.474Z,11.40
2022-11-14T13:43:51.296Z,11.40
2022-11-14T13:46:41.206Z,11.40
2022-11-14T13:49:32.612Z,11.40
2022-11-14T13:51:59.579Z,11.40
2022-11-14T13:54:26.216Z,11.30
2022-11-14T13:57:06.441Z,11.20
2022-11-14T13:59:53.274Z,11.20
2022-11-14T14:02:53.745Z,11.20
2022-11-14T14:05:37.895Z,11.30
2022-11-14T14:08:19.653Z,11.30
2022-11-14T14:11:17.207Z,11.30
2022-11-14T14:14:14.170Z,11.30
2022-11-14T14:16:55.630Z,11.30
2022-11-14T14:19:28.149Z,11.30
2022-11-14T14:22:10.811Z,11.40
2022-11-14T14:24:55.013Z,11.30
2022-11-14T14:27:32.505Z,11.20
2022-11-14T14:30:14.509Z,11.20
2022-11-14T14:32:41.329Z,11.20
2022-11-14T14:35:27.047Z,11.20
2022-11-14T14:37:55.248Z,11.10
2022-11-14T14:40:33.320Z,11.00
2022-11-14T14:43:05.713Z,11.00
2022-11-14T14:45:44.608Z,11.00
2022-11-14T14:48:18.013Z,11.10
2022-11-14T14:50:53.322Z,11.10
2022-11-14T14:53:26.416Z,11.00
2022-11-14T14:56:03.757Z,11.10
2022-11-14T14:58:33.020Z,11.00
2022-11-14T15:01:03.833Z,11.00
2022-11-14T15:03:42.856Z,10.90
2022-11-14T15:06:34.558Z,10.90
2022-11-14T15:09:10.796Z,10.90
2022-11-14T15:11:43.152Z,10.90
2022-11-14T15:14:16.207Z,10.90
2022-11-14T15:16:44.806Z,10.90
2022-11-14T15:19:16.660Z,10.90
2022-11-14T15:21:43.902Z,10.90
2022-11-14T15:24:16.610Z,10.80
2022-11-14T15:26:45.538Z,10.80
2022-11-14T15:29:24.401Z,10.80
2022-11-14T15:31:56.513Z,10.80
2022-11-14T15:34:34.911Z,10.70
2022-11-14T15:37:10.464Z,10.70
2022-11-14T15:39:38.106Z,10.70
2022-11-14T15:42:16.853Z,10.60
2022-11-14T15:44:43.559Z,10.60
2022-11-14T15:47:13.134Z,10.60
2022-11-14T15:49:40.077Z,10.60
2022-11-14T15:52:20.331Z,10.50
2022-11-14T15:54:46.938Z,10.50
2022-11-14T15:57:15.699Z,10.50
2022-11-14T15:59:42.577Z,10.50
2022-11-14T16:02:25.035Z,10.40
2022-11-14T16:04:53.171Z,10.40
2022-11-14T16:07:20.511Z,10.40
2022-11-14T16:09:47.550Z,10.30
2022-11-14T16:12:14.546Z,10.30
2022-11-14T16:14:41.424Z,10.30
2022-11-14T16:17:16.220Z,10.30
2022-11-14T16:19:43.029Z,10.30
2022-11-14T16:22:15.868Z,10.30
2022-11-14T16:24:42.470Z,10.30
2022-11-14T16:27:09.497Z,10.30
2022-11-14T16:29:36.107Z,10.30
2022-11-14T16:32:03.583Z,10.20
2022-11-14T16:34:30.232Z,10.10
2022-11-14T16:37:02.086Z,10.10
2022-11-14T16:39:29.143Z,10.10
2022-11-14T16:42:02.705Z,10.10
2022-11-14T16:44:29.675Z,10.10
2022-11-14T16:46:56.459Z,10.10
2022-11-14T16:49:23.045Z,10.20
2022-11-14T16:51:51.220Z,10.20
2022-11-14T16:54:19.505Z,10.20
2022-11-14T16:56:46.936Z,10.10
2022-11-14T16:59:13.911Z,10.10
2022-11-14T17:01:40.835Z,10.10
2022-11-14T17:04:07.490Z,10.10
2022-11-14T17:06:34.138Z,10.10
2022-11-14T17:09:01.211Z,10.10
2022-11-14T17:11:28.405Z,10.20
2022-11-14T17:13:56.013Z,10.10
2022-11-14T17:16:23.164Z,10.10
2022-11-14T17:18:54.540Z,10.00
2022-11-14T17:21:21.683Z,10.00
2022-11-14T17:24:03.091Z,10.00
2022-11-14T17:26:29.861Z,10.00
2022-11-14T17:28:57.004Z,10.00
2022-11-14T17:31:23.617Z,10.00
2022-11-14T17:33:54.885Z,10.00
2022-11-14T17:36:23.340Z,10.00
2022-11-14T17:38:50.585Z,9.90
2022-11-14T17:41:17.821Z,9.90
2022-11-14T17:43:44.971Z,9.80
2022-11-14T17:46:16.134Z,9.70
2022-11-14T17:48:44.065Z,9.80
2022-11-14T17:51:13.511Z,10.60
2022-11-14T17:53:40.750Z,11.30
2022-11-14T17:56:08.277Z,11.90
2022-11-14T17:58:35.091Z,12.20
2022-11-14T18:01:01.893Z,12.40
2022-11-14T18:03:28.572Z,12.20
2022-11-14T18:06:06.903Z,11.40
2022-11-14T18:08:34.499Z,11.00
2022-11-14T18:11:06.415Z,10.70
2022-11-14T18:13:33.692Z,10.50
2022-11-14T18:16:02.149Z,10.20
2022-11-14T18:18:31.663Z,10.20
2022-11-14T18:20:58.743Z,10.20
2022-11-14T18:23:25.521Z,10.20
2022-11-14T18:25:52.193Z,10.10
2022-11-14T18:28:18.797Z,10.10
2022-11-14T18:30:55.484Z,10.00
2022-11-14T18:33:22.944Z,9.90
2022-11-14T18:35:57.491Z,9.90
2022-11-14T18:38:24.556Z,10.00
2022-11-14T18:40:56.887Z,10.00
2022-11-14T18:43:24.406Z,10.00
2022-11-14T18:45:51.154Z,10.00
2022-11-14T18:48:18.074Z,9.90
2022-11-14T18:50:44.700Z,9.90
2022-11-14T18:53:11.369Z,10.40
2022-11-14T18:55:41.165Z,10.00
2022-11-14T18:58:07.826Z,9.90
2022-11-14T19:00:35.156Z,9.90
2022-11-14T19:03:06.014Z,9.80
2022-11-14T19:05:36.139Z,9.70
2022-11-14T19:08:03.256Z,9.70
2022-11-14T19:10:29.883Z,9.70
2022-11-14T19:12:56.514Z,9.70
2022-11-14T19:15:23.179Z,9.70
2022-11-14T19:17:49.831Z,9.70
2022-11-14T19:20:17.031Z,9.50
2022-11-14T19:22:45.032Z,9.60
2022-11-14T19:25:11.700Z,9.60
2022-11-14T19:27:39.882Z,9.70
2022-11-14T19:30:07.114Z,9.70
2022-11-14T19:32:34.336Z,9.70
2022-11-14T19:35:00.950Z,9.70
2022-11-14T19:37:28.328Z,9.60
2022-11-14T19:39:55.459Z,9.60
2022-11-14T19:42:22.165Z,9.70
2022-11-14T19:44:48.971Z,9.80
2022-11-14T19:47:15.600Z,9.90
2022-11-14T19:49:42.839Z,10.00
2022-11-14T19:52:10.094Z,10.00
2022-11-14T19:54:36.770Z,10.10
2022-11-14T19:57:03.518Z,10.00
2022-11-14T19:59:30.124Z,9.90
2022-11-14T20:01:56.875Z,9.90
2022-11-14T20:04:23.678Z,10.00
2022-11-14T20:06:50.720Z,10.00
2022-11-14T20:09:17.439Z,9.90
2022-11-14T20:11:44.045Z,9.80
2022-11-14T20:14:12.387Z,9.70
2022-11-14T20:16:39.070Z,9.50
2022-11-14T20:19:05.863Z,9.40
2022-11-14T20:21:33.669Z,9.40
2022-11-14T20:24:00.509Z,9.40
2022-11-14T20:26:27.668Z,9.50
2022-11-14T20:28:54.738Z,9.60
2022-11-14T20:31:24.487Z,9.40
2022-11-14T20:33:52.541Z,9.40
2022-11-14T20:36:39.027Z,9.40
2022-11-14T20:39:10.652Z,9.40
2022-11-14T20:41:37.246Z,9.50
2022-11-14T20:44:04.194Z,9.50
2022-11-14T20:46:30.834Z,9.50
2022-11-14T20:48:57.463Z,9.50
2022-11-14T20:51:25.651Z,9.50
2022-11-14T20:53:54.085Z,9.40
2022-11-14T20:56:22.292Z,9.40
2022-11-14T20:58:51.718Z,9.40
2022-11-14T21:01:18.576Z,9.60
2022-11-14T21:03:45.781Z,9.40
2022-11-14T21:06:13.807Z,9.40
2022-11-14T21:08:41.740Z,9.40
2022-11-14T21:11:13.261Z,9.40
2022-11-14T21:13:58.866Z,9.40
2022-11-14T21:16:38.757Z,9.40
2022-11-14T21:19:07.374Z,9.40
2022-11-14T21:21:36.159Z,9.40
2022-11-14T21:24:03.672Z,9.40
2022-11-14T21:26:36.800Z,9.40
2022-11-14T21:29:14.232Z,9.40
2022-11-14T21:31:44.487Z,9.40
2022-11-14T21:34:14.096Z,9.40
2022-11-14T21:36:45.918Z,9.30
2022-11-14T21:39:15.053Z,9.30
2022-11-14T21:41:42.289Z,9.30
2022-11-14T21:44:12.746Z,9.30
2022-11-14T21:46:39.360Z,9.40
2022-11-14T21:49:05.939Z,9.40
2022-11-14T21:51:32.594Z,9.30
2022-11-14T21:53:59.326Z,9.20
2022-11-14T21:56:28.625Z,9.20
2022-11-14T21:59:15.166Z,9.20
2022-11-14T22:02:08.549Z,9.10
2022-11-14T22:04:36.053Z,9.10
2022-11-14T22:07:05.862Z,9.00
2022-11-14T22:09:32.826Z,8.90
2022-11-14T22:11:59.946Z,8.90
2022-11-14T22:14:26.541Z,8.90
2022-11-14T22:16:53.136Z,8.90
2022-11-14T22:19:19.774Z,8.90
2022-11-14T22:21:46.503Z,8.90
2022-11-14T22:24:13.090Z,8.90
2022-11-14T22:26:40.422Z,9.00
2022-11-14T22:29:08.113Z,9.00
2022-11-14T22:31:34.958Z,9.00
2022-11-14T22:34:01.667Z,9.10
2022-11-14T22:36:28.359Z,9.10
2022-11-14T22:38:56.609Z,9.00
2022-11-14T22:41:30.472Z,9.00
2022-11-14T22:43:58.991Z,9.00
2022-11-14T22:46:27.135Z,8.90
2022-11-14T22:48:54.445Z,8.80
2022-11-14T22:51:23.232Z,8.80
2022-11-14T22:53:51.967Z,8.70
2022-11-14T22:56:20.651Z,8.70
2022-11-14T22:58:47.682Z,8.70
2022-11-14T23:01:20.430Z,8.70
2022-11-14T23:03:50.657Z,8.70
2022-11-14T23:06:19.109Z,8.80
2022-11-14T23:08:45.893Z,8.70
2022-11-14T23:11:15.786Z,8.70
2022-11-14T23:13:45.329Z,8.70
2022-11-14T23:16:14.382Z,8.70
2022-11-14T23:18:41.384Z,8.70
2022-11-14T23:21:09.689Z,8.70
2022-11-14T23:23:36.569Z,8.60
2022-11-14T23:26:09.313Z,8.60
2022-11-14T23:28:36.922Z,8.60
2022-11-14T23:31:04.125Z,8.60
2022-11-14T23:33:31.344Z,8.60
2022-11-14T23:35:58.332Z,8.50
2022-11-14T23:38:25.126Z,8.50
2022-11-14T23:40:56.745Z,8.50
2022-11-14T23:43:23.604Z,8.50
2022-11-14T23:45:50.248Z,8.50
2022-11-14T23:48:18.959Z,8.50
2022-11-14T23:50:48.926Z,8.50
2022-11-14T23:53:15.510Z,8.50
2022-11-14T23:55:42.142Z,8.50
2022-11-14T23:58:08.929Z,8.50
